aviador You're here:

KMLP Decoded Metar

MULLAN PASS in ID, USA
Report Time2017-12-16 17:53:00
UTC Time2017-12-16 18:53:39
Flight Rules lifr LIFR
WindVRB at 04 kt
Visibility402 m
Phenomena:Haze
Clouds:N/A
Expected CloudBase > 1,200 ft AGL from Temp-Dew spread
Ceiling100 ft
Temp-7°C (ISA -10)
Dew Point-10°C (79% RH)
AAT-11.5°C
QNH1016 hPa
Density Alt4,757 ft
Elevation6,027 ft
Report Wrong Elevation
Raw Report
METAR KMLP 161753Z AUTO VRB04KT 1/4SM HZ VV001 M07/M10 A3001 RMK AO2
SLP220 60000 T10671100 11067 21078 53016 TSNO=

Extra information for KMLP:More info

Metar Taf Metar & Taf Last 4 Metars F.Rules Stats Wind Profile Meteogram Temp Stats Airport Information Weather charts Add Link Nearby VenuesMetar ALERT Operation Metar Decoded Social comments

AIRNAV info for KMLP